createdAt,value
2017-07-11T03:31:30.969Z,19.40
2017-07-11T03:33:58.609Z,19.40
2017-07-11T03:36:26.301Z,19.60
2017-07-11T03:38:54.298Z,19.40
2017-07-11T03:41:21.957Z,19.50
2017-07-11T03:43:49.597Z,19.40
2017-07-11T03:46:17.583Z,19.60
2017-07-11T03:48:45.979Z,19.70
2017-07-11T03:51:14.350Z,19.70
2017-07-11T03:53:42.430Z,19.50
2017-07-11T03:56:10.067Z,19.60
2017-07-11T03:58:38.485Z,19.50
2017-07-11T04:01:06.526Z,19.50
2017-07-11T04:03:34.942Z,19.50
2017-07-11T04:06:02.596Z,19.50
2017-07-11T04:08:30.379Z,19.50
2017-07-11T04:10:58.017Z,19.50
2017-07-11T04:13:25.713Z,19.40
2017-07-11T04:15:53.489Z,19.40
2017-07-11T04:18:21.132Z,19.40
2017-07-11T04:20:48.782Z,19.30
2017-07-11T04:23:16.566Z,19.10
2017-07-11T04:25:44.358Z,19.30
2017-07-11T04:28:12.760Z,19.50
2017-07-11T04:30:40.738Z,19.50
2017-07-11T04:33:08.393Z,19.70
2017-07-11T04:35:36.017Z,19.70
2017-07-11T04:38:03.776Z,19.60
2017-07-11T04:40:31.399Z,19.80
2017-07-11T04:42:59.047Z,19.90
2017-07-11T04:45:26.833Z,20.00
2017-07-11T04:47:54.472Z,19.80
2017-07-11T04:50:22.120Z,19.60
2017-07-11T04:52:50.757Z,19.70
2017-07-11T04:55:18.419Z,19.70
2017-07-11T04:57:46.232Z,19.90
2017-07-11T05:00:14.915Z,19.90
2017-07-11T05:02:43.322Z,19.90
2017-07-11T05:05:11.339Z,19.80
2017-07-11T05:07:39.458Z,19.70
2017-07-11T05:10:07.122Z,19.70
2017-07-11T05:12:34.744Z,19.80
2017-07-11T05:15:03.286Z,19.80
2017-07-11T05:17:30.936Z,19.80
2017-07-11T05:19:59.392Z,19.70
2017-07-11T05:22:27.167Z,19.80
2017-07-11T05:24:54.862Z,19.80
2017-07-11T05:27:22.521Z,19.70
2017-07-11T05:29:50.301Z,19.70
2017-07-11T05:32:17.945Z,19.90
2017-07-11T05:34:45.589Z,20.00
2017-07-11T05:37:13.342Z,20.00
2017-07-11T05:39:40.995Z,19.90
2017-07-11T05:42:08.735Z,19.90
2017-07-11T05:44:37.507Z,19.80
2017-07-11T05:47:05.218Z,19.80
2017-07-11T05:49:32.840Z,19.80
2017-07-11T05:52:01.245Z,19.90
2017-07-11T05:54:29.652Z,20.00
2017-07-11T05:56:57.315Z,20.00
2017-07-11T05:59:25.104Z,20.00
2017-07-11T06:01:52.735Z,20.00
2017-07-11T06:04:20.397Z,20.30
2017-07-11T06:06:48.453Z,20.30
2017-07-11T06:09:16.118Z,20.20
2017-07-11T06:11:43.777Z,20.20
2017-07-11T06:14:11.700Z,20.20
2017-07-11T06:16:39.329Z,20.20
2017-07-11T06:19:06.976Z,20.10
2017-07-11T06:21:34.972Z,20.20
2017-07-11T06:24:02.629Z,20.10
2017-07-11T06:26:30.273Z,20.00
2017-07-11T06:28:58.043Z,20.00
2017-07-11T06:31:25.730Z,20.10
2017-07-11T06:33:53.400Z,20.00
2017-07-11T06:36:21.411Z,19.80
2017-07-11T06:38:49.051Z,19.80
2017-07-11T06:41:16.753Z,20.00
2017-07-11T06:43:44.673Z,20.20
2017-07-11T06:46:12.312Z,20.30
2017-07-11T06:48:39.964Z,20.20
2017-07-11T06:51:08.001Z,20.40
2017-07-11T06:53:35.655Z,20.70
2017-07-11T06:56:04.073Z,20.90
2017-07-11T06:58:32.119Z,20.80
2017-07-11T07:00:59.776Z,20.90
2017-07-11T07:03:27.422Z,20.90
2017-07-11T07:05:56.204Z,21.00
2017-07-11T07:08:24.598Z,21.20
2017-07-11T07:10:53.016Z,21.10
2017-07-11T07:13:20.799Z,21.10
2017-07-11T07:15:48.460Z,21.20
2017-07-11T07:18:16.122Z,21.10
2017-07-11T07:20:44.052Z,21.30
2017-07-11T07:23:11.739Z,21.40
2017-07-11T07:25:39.443Z,21.60
2017-07-11T07:28:08.166Z,21.10
2017-07-11T07:30:35.814Z,21.00
2017-07-11T07:33:03.449Z,20.90
2017-07-11T07:35:31.461Z,21.40
2017-07-11T07:37:59.142Z,22.00
2017-07-11T07:40:26.784Z,22.70
2017-07-11T07:42:54.598Z,23.00
2017-07-11T07:45:22.293Z,22.80
2017-07-11T07:47:49.964Z,22.70
2017-07-11T07:50:18.030Z,22.50
2017-07-11T07:52:45.688Z,22.30
2017-07-11T07:55:13.336Z,21.90
2017-07-11T07:57:41.882Z,21.80
2017-07-11T08:00:09.548Z,21.80
2017-07-11T08:02:37.220Z,21.80
2017-07-11T08:05:05.022Z,21.80
2017-07-11T08:07:32.680Z,22.00
2017-07-11T08:10:01.111Z,22.30
2017-07-11T08:12:28.909Z,22.30
2017-07-11T08:14:57.345Z,22.20
2017-07-11T08:17:24.994Z,22.20
2017-07-11T08:19:52.775Z,22.00
2017-07-11T08:22:20.468Z,22.20
2017-07-11T08:24:48.109Z,22.60
2017-07-11T08:27:15.890Z,22.80
2017-07-11T08:29:43.544Z,22.90
2017-07-11T08:32:11.235Z,22.90
2017-07-11T08:34:39.789Z,23.10
2017-07-11T08:37:07.435Z,23.00
2017-07-11T08:39:35.094Z,23.10
2017-07-11T08:42:03.032Z,22.90
2017-07-11T08:44:30.701Z,23.10
2017-07-11T08:46:58.355Z,23.50
2017-07-11T08:49:26.143Z,23.30
2017-07-11T08:51:53.799Z,23.50
2017-07-11T08:54:21.455Z,23.50
2017-07-11T08:56:49.255Z,23.40
2017-07-11T08:59:16.894Z,23.30
2017-07-11T09:01:44.531Z,23.30
2017-07-11T09:04:12.594Z,23.80
2017-07-11T09:06:40.242Z,23.70
2017-07-11T09:09:08.666Z,24.40
2017-07-11T09:11:36.675Z,24.40
2017-07-11T09:14:04.416Z,25.20
2017-07-11T09:16:32.122Z,25.90
2017-07-11T09:18:59.891Z,25.90
2017-07-11T09:21:27.557Z,25.20
2017-07-11T09:23:55.211Z,24.90
2017-07-11T09:26:23.744Z,24.20
2017-07-11T09:28:51.397Z,24.20
2017-07-11T09:31:19.063Z,24.20
2017-07-11T09:33:47.094Z,24.70
2017-07-11T09:36:14.757Z,26.00
2017-07-11T09:38:42.396Z,25.80
2017-07-11T09:41:11.197Z,28.10
2017-07-11T09:43:39.635Z,27.40
2017-07-11T09:46:07.261Z,27.30
2017-07-11T09:48:35.243Z,26.60
2017-07-11T09:51:02.936Z,25.50
2017-07-11T09:53:30.971Z,24.60
2017-07-11T09:55:58.924Z,24.40
2017-07-11T09:58:26.659Z,26.40
2017-07-11T10:00:55.358Z,30.40
2017-07-11T10:03:23.910Z,28.40
2017-07-11T10:05:51.572Z,28.40
2017-07-11T10:08:19.556Z,26.90
2017-07-11T10:10:47.647Z,27.80
2017-07-11T10:13:15.447Z,28.20
2017-07-11T10:15:43.105Z,28.60
2017-07-11T10:18:10.983Z,29.00
2017-07-11T10:20:38.628Z,29.20
2017-07-11T10:23:06.270Z,29.20
2017-07-11T10:25:34.048Z,28.40
2017-07-11T10:28:01.709Z,27.60
2017-07-11T10:30:29.369Z,27.40
2017-07-11T10:32:57.429Z,26.90
2017-07-11T10:35:25.078Z,27.00
2017-07-11T10:37:53.487Z,26.70
2017-07-11T10:40:21.544Z,26.60
2017-07-11T10:42:49.192Z,26.60
2017-07-11T10:45:17.642Z,26.30
2017-07-11T10:47:45.472Z,26.30
2017-07-11T10:50:13.165Z,26.10
2017-07-11T10:52:40.849Z,25.90
2017-07-11T10:55:08.597Z,26.20
2017-07-11T10:57:36.258Z,26.20
2017-07-11T11:00:03.924Z,26.20
2017-07-11T11:02:31.700Z,25.80
2017-07-11T11:05:00.122Z,26.00
2017-07-11T11:07:27.804Z,26.00
2017-07-11T11:09:55.850Z,26.10
2017-07-11T11:12:23.514Z,26.30
2017-07-11T11:14:51.152Z,26.10
2017-07-11T11:17:19.663Z,25.80
2017-07-11T11:19:47.302Z,25.80
2017-07-11T11:22:14.960Z,25.50
2017-07-11T11:24:43.693Z,25.80
2017-07-11T11:27:11.337Z,25.80
2017-07-11T11:29:38.982Z,26.00
2017-07-11T11:32:06.771Z,25.90
2017-07-11T11:34:34.421Z,25.70
2017-07-11T11:37:02.080Z,25.50
2017-07-11T11:39:31.374Z,25.00
2017-07-11T11:41:59.017Z,25.30
2017-07-11T11:44:27.441Z,25.50
2017-07-11T11:46:55.474Z,25.40
2017-07-11T11:49:23.131Z,25.60
2017-07-11T11:51:51.528Z,26.40
2017-07-11T11:54:19.331Z,26.40
2017-07-11T11:56:46.979Z,26.10
2017-07-11T11:59:14.684Z,25.50
2017-07-11T12:01:43.420Z,25.30
2017-07-11T12:04:11.079Z,25.30
2017-07-11T12:06:38.737Z,25.50
2017-07-11T12:09:06.791Z,26.10
2017-07-11T12:11:34.444Z,25.80
2017-07-11T12:14:02.213Z,25.30
2017-07-11T12:16:30.108Z,25.70
2017-07-11T12:18:57.764Z,26.30
2017-07-11T12:21:25.418Z,27.00
2017-07-11T12:23:53.453Z,27.20
2017-07-11T12:26:21.113Z,27.10
2017-07-11T12:28:48.779Z,27.40
2017-07-11T12:31:17.074Z,27.50
2017-07-11T12:33:44.744Z,27.10
2017-07-11T12:36:12.382Z,26.90
2017-07-11T12:38:41.114Z,26.60
2017-07-11T12:41:08.770Z,26.60
2017-07-11T12:43:36.442Z,26.60
2017-07-11T12:46:04.203Z,26.70
2017-07-11T12:48:31.865Z,26.70
2017-07-11T12:50:59.532Z,26.60
2017-07-11T12:53:27.525Z,26.50
2017-07-11T12:55:55.162Z,26.40
2017-07-11T12:58:22.837Z,26.80
2017-07-11T13:00:50.618Z,26.70
2017-07-11T13:03:18.292Z,26.40
2017-07-11T13:05:46.021Z,26.50
2017-07-11T13:08:14.030Z,26.20
2017-07-11T13:10:42.442Z,25.70
2017-07-11T13:13:10.123Z,25.70
2017-07-11T13:15:38.158Z,25.80
2017-07-11T13:18:06.588Z,26.30
2017-07-11T13:20:34.237Z,26.30
2017-07-11T13:23:02.272Z,26.10
2017-07-11T13:25:29.924Z,25.70
2017-07-11T13:27:58.370Z,25.20
2017-07-11T13:30:26.386Z,25.20
2017-07-11T13:32:54.056Z,25.00
2017-07-11T13:35:21.946Z,25.20
2017-07-11T13:37:49.967Z,25.40
2017-07-11T13:40:17.711Z,25.60
2017-07-11T13:42:45.343Z,25.70
2017-07-11T13:45:13.307Z,25.60
2017-07-11T13:47:40.953Z,25.70
2017-07-11T13:50:08.622Z,25.70
2017-07-11T13:52:36.682Z,25.80
2017-07-11T13:55:04.376Z,25.20
2017-07-11T13:57:32.020Z,25.10
2017-07-11T14:00:00.599Z,25.30
2017-07-11T14:02:28.294Z,25.40
2017-07-11T14:04:55.937Z,25.40
2017-07-11T14:07:24.086Z,25.40
2017-07-11T14:09:51.939Z,25.60
2017-07-11T14:12:20.345Z,25.90
2017-07-11T14:14:48.585Z,25.80
2017-07-11T14:17:16.251Z,25.50
2017-07-11T14:19:44.678Z,25.30
2017-07-11T14:22:12.826Z,25.30
2017-07-11T14:24:40.491Z,25.30
2017-07-11T14:27:08.270Z,25.20
2017-07-11T14:29:36.303Z,25.10
2017-07-11T14:32:04.929Z,25.00
2017-07-11T14:34:32.610Z,25.00
2017-07-11T14:37:00.619Z,25.10
2017-07-11T14:39:29.028Z,25.40
2017-07-11T14:41:56.690Z,25.40
2017-07-11T14:44:24.748Z,25.40
2017-07-11T14:46:52.406Z,25.40
2017-07-11T14:49:20.050Z,25.40
2017-07-11T14:51:48.832Z,25.90
2017-07-11T14:54:17.248Z,25.90
2017-07-11T14:56:46.652Z,26.10
2017-07-11T14:59:14.717Z,26.10
2017-07-11T15:01:42.432Z,26.40
2017-07-11T15:04:10.108Z,26.40
2017-07-11T15:06:38.106Z,26.10
2017-07-11T15:09:05.811Z,25.80
2017-07-11T15:11:34.261Z,25.70
2017-07-11T15:14:02.300Z,25.40
2017-07-11T15:16:30.720Z,24.90
2017-07-11T15:18:58.371Z,24.90
2017-07-11T15:21:26.425Z,24.90
2017-07-11T15:23:54.872Z,24.70
2017-07-11T15:26:22.523Z,24.70
2017-07-11T15:28:50.575Z,24.60
2017-07-11T15:31:18.245Z,24.90
2017-07-11T15:33:45.887Z,25.30
2017-07-11T15:36:13.899Z,25.10
2017-07-11T15:38:42.442Z,24.80
2017-07-11T15:41:10.237Z,24.90
2017-07-11T15:43:38.237Z,25.00
2017-07-11T15:46:06.771Z,24.80
2017-07-11T15:48:34.417Z,24.80
2017-07-11T15:51:02.473Z,24.50
2017-07-11T15:53:30.125Z,24.60
2017-07-11T15:55:58.540Z,24.70
2017-07-11T15:58:26.594Z,24.70
2017-07-11T16:00:54.248Z,24.70
2017-07-11T16:03:21.901Z,24.90
2017-07-11T16:05:49.870Z,25.00
2017-07-11T16:08:17.542Z,25.00
2017-07-11T16:10:45.219Z,24.80
2017-07-11T16:22:58.418Z,24.90
2017-07-11T16:25:26.075Z,24.00
2017-07-11T16:27:53.703Z,24.20
2017-07-11T16:30:23.306Z,24.60
2017-07-11T16:32:51.741Z,24.70
2017-07-11T16:35:19.419Z,24.70
2017-07-11T16:37:47.449Z,24.80
2017-07-11T16:40:15.081Z,24.60
2017-07-11T16:42:42.728Z,24.30
2017-07-11T16:45:10.822Z,24.60
2017-07-11T16:47:38.575Z,25.10
2017-07-11T16:50:07.206Z,25.30
2017-07-11T16:52:35.261Z,25.20
2017-07-11T16:55:03.138Z,24.80
2017-07-11T16:57:30.798Z,24.70
2017-07-11T16:59:58.846Z,24.70
2017-07-11T17:02:26.566Z,25.00
2017-07-11T17:04:54.305Z,24.80
2017-07-11T17:07:23.237Z,24.40
2017-07-11T17:09:51.031Z,24.20
2017-07-11T17:12:18.744Z,24.30
2017-07-11T17:14:47.735Z,24.50
2017-07-11T17:17:16.781Z,24.80
2017-07-11T17:19:47.427Z,25.00
2017-07-11T17:22:15.078Z,24.80
2017-07-11T17:24:42.750Z,24.40
2017-07-11T17:27:10.808Z,24.30
2017-07-11T17:29:38.468Z,24.20
2017-07-11T17:32:06.158Z,24.20
2017-07-11T17:34:34.201Z,24.10
2017-07-11T17:37:01.854Z,24.00
2017-07-11T17:39:30.278Z,24.20
2017-07-11T17:41:58.286Z,24.20
2017-07-11T17:44:25.951Z,24.40
2017-07-11T17:46:54.380Z,24.40
2017-07-11T17:49:22.405Z,24.40
2017-07-11T17:51:50.102Z,24.50
2017-07-11T17:54:17.759Z,24.60
2017-07-11T17:56:45.820Z,24.70
2017-07-11T17:59:13.490Z,24.80
2017-07-11T18:01:41.157Z,24.80
2017-07-11T18:04:09.212Z,24.70
2017-07-11T18:06:36.888Z,24.60
2017-07-11T18:09:04.551Z,24.60
2017-07-11T18:11:32.573Z,24.60
2017-07-11T18:14:00.263Z,24.70
2017-07-11T18:16:27.938Z,24.60
2017-07-11T18:28:41.227Z,24.60
2017-07-11T18:31:08.919Z,23.20
2017-07-11T18:33:36.629Z,23.40
2017-07-11T18:36:04.729Z,23.70
2017-07-11T18:38:32.481Z,23.80
2017-07-11T18:41:01.105Z,23.90
2017-07-11T18:43:29.153Z,24.00
2017-07-11T18:45:56.835Z,23.90
2017-07-11T18:48:25.075Z,23.80
2017-07-11T18:50:53.135Z,23.90
2017-07-11T18:53:21.617Z,23.80
2017-07-11T18:55:50.150Z,23.80
2017-07-11T18:58:18.195Z,23.70
2017-07-11T19:00:46.777Z,23.70
2017-07-11T19:03:14.460Z,23.60
2017-07-11T19:05:42.501Z,23.50
2017-07-11T19:08:10.155Z,23.30
2017-07-11T19:10:37.821Z,23.10
2017-07-11T19:13:05.831Z,23.10
2017-07-11T19:15:33.490Z,23.20
2017-07-11T19:18:01.197Z,23.40
2017-07-11T19:20:29.810Z,23.60
2017-07-11T19:22:57.478Z,23.50
2017-07-11T19:25:25.147Z,23.50
2017-07-11T19:27:53.196Z,23.50
2017-07-11T19:30:21.864Z,23.40
2017-07-11T19:32:50.310Z,23.30
2017-07-11T19:35:18.097Z,23.30
2017-07-11T19:37:45.787Z,23.30
2017-07-11T19:40:13.505Z,23.30
2017-07-11T19:42:41.627Z,23.30
2017-07-11T19:45:10.043Z,23.20
2017-07-11T19:47:37.714Z,23.20
2017-07-11T19:50:05.679Z,23.10
2017-07-11T19:52:33.367Z,23.10
2017-07-11T19:55:01.028Z,23.20
2017-07-11T19:57:28.892Z,23.10
2017-07-11T19:59:56.592Z,22.90
2017-07-11T20:02:24.278Z,23.00
2017-07-11T20:04:52.110Z,23.10
2017-07-11T20:07:20.591Z,23.00
2017-07-11T20:09:49.016Z,23.00
2017-07-11T20:12:16.806Z,23.00
2017-07-11T20:14:44.472Z,22.90
2017-07-11T20:17:12.144Z,22.80
2017-07-11T20:19:39.920Z,22.80
2017-07-11T20:22:08.379Z,22.90
2017-07-11T20:24:36.048Z,22.90
2017-07-11T20:27:04.074Z,22.90
2017-07-11T20:29:31.741Z,22.90
2017-07-11T20:31:59.392Z,22.80
2017-07-11T20:34:27.167Z,22.80
2017-07-11T20:36:54.854Z,22.50
2017-07-11T20:39:22.507Z,22.40
2017-07-11T20:41:50.578Z,22.50
2017-07-11T20:44:18.257Z,22.60
2017-07-11T20:46:45.917Z,22.70
2017-07-11T20:49:13.913Z,22.80
2017-07-11T20:51:42.348Z,22.70
2017-07-11T20:54:10.024Z,22.70
2017-07-11T20:56:38.053Z,22.70
2017-07-11T20:59:05.694Z,22.80
2017-07-11T21:01:33.335Z,22.90
2017-07-11T21:04:01.140Z,22.90
2017-07-11T21:06:28.780Z,22.80
2017-07-11T21:08:57.253Z,22.70
2017-07-11T21:11:25.955Z,22.70
2017-07-11T21:13:54.536Z,22.60
2017-07-11T21:16:22.195Z,22.60
2017-07-11T21:18:49.994Z,22.60
2017-07-11T21:21:17.653Z,22.50
2017-07-11T21:23:45.313Z,22.50
2017-07-11T21:26:13.092Z,22.40
2017-07-11T21:28:40.762Z,22.30
2017-07-11T21:31:08.424Z,22.20
2017-07-11T21:33:36.471Z,22.20
2017-07-11T21:36:04.178Z,22.10
2017-07-11T21:38:31.842Z,22.10
2017-07-11T21:40:59.637Z,22.10
2017-07-11T21:43:27.303Z,22.00
2017-07-11T21:45:54.956Z,22.00
2017-07-11T21:48:23.530Z,21.90
2017-07-11T21:50:51.941Z,21.90
2017-07-11T21:53:19.572Z,21.90
2017-07-11T21:55:47.545Z,21.90
2017-07-11T21:58:15.171Z,21.90
2017-07-11T22:00:42.822Z,21.90
2017-07-11T22:03:10.593Z,21.80
2017-07-11T22:05:38.220Z,21.80
2017-07-11T22:08:05.864Z,21.70
2017-07-11T22:10:34.036Z,21.70
2017-07-11T22:13:02.521Z,21.70
2017-07-11T22:15:30.176Z,21.60
2017-07-11T22:17:59.515Z,21.70
2017-07-11T22:20:27.180Z,21.70
2017-07-11T22:22:54.887Z,22.00
2017-07-11T22:25:23.403Z,22.00
2017-07-11T22:27:51.572Z,22.00
